sensor_id;sensor_type;location;lat;lon;timestamp;pressure;altitude;pressure_sealevel;temperature;humidity
76404;BME280;65232;48.358;2.122;2023-02-02T00:00:07;102303.09;;;4.98;80.38
76404;BME280;65232;48.358;2.122;2023-02-02T00:00:33;102300.50;;;4.96;80.36
76404;BME280;65232;48.358;2.122;2023-02-02T00:00:59;102309.38;;;4.95;80.35
76404;BME280;65232;48.358;2.122;2023-02-02T00:01:25;102301.41;;;4.95;80.56
76404;BME280;65232;48.358;2.122;2023-02-02T00:01:52;102302.22;;;4.97;80.35
76404;BME280;65232;48.358;2.122;2023-02-02T00:02:18;102311.00;;;5.00;80.39
76404;BME280;65232;48.358;2.122;2023-02-02T00:02:43;102303.97;;;4.99;80.54
76404;BME280;65232;48.358;2.122;2023-02-02T00:03:09;102309.22;;;5.00;80.34
76404;BME280;65232;48.358;2.122;2023-02-02T00:03:35;102311.81;;;5.02;80.37
76404;BME280;65232;48.358;2.122;2023-02-02T00:04:02;102302.91;;;5.04;80.12
76404;BME280;65232;48.358;2.122;2023-02-02T00:04:32;102308.94;;;5.08;80.08
76404;BME280;65232;48.358;2.122;2023-02-02T00:04:58;102303.56;;;5.09;79.72
76404;BME280;65232;48.358;2.122;2023-02-02T00:05:24;102303.56;;;5.09;80.27
76404;BME280;65232;48.358;2.122;2023-02-02T00:05:52;102303.63;;;5.08;80.23
76404;BME280;65232;48.358;2.122;2023-02-02T00:06:20;102307.03;;;5.11;80.13
76404;BME280;65232;48.358;2.122;2023-02-02T00:06:46;102310.66;;;5.09;79.63
76404;BME280;65232;48.358;2.122;2023-02-02T00:07:11;102310.56;;;5.12;79.71
76404;BME280;65232;48.358;2.122;2023-02-02T00:07:37;102307.03;;;5.11;79.87
76404;BME280;65232;48.358;2.122;2023-02-02T00:08:02;102303.47;;;5.12;79.79
76404;BME280;65232;48.358;2.122;2023-02-02T00:08:28;102314.19;;;5.09;80.04
76404;BME280;65232;48.358;2.122;2023-02-02T00:08:56;102306.34;;;5.06;79.85
76404;BME280;65232;48.358;2.122;2023-02-02T00:09:22;102310.00;;;5.04;80.10
76404;BME280;65232;48.358;2.122;2023-02-02T00:09:50;102310.78;;;5.06;79.99
76404;BME280;65232;48.358;2.122;2023-02-02T00:10:16;102313.38;;;5.07;80.07
76404;BME280;65232;48.358;2.122;2023-02-02T00:10:42;102313.50;;;5.04;79.95
76404;BME280;65232;48.358;2.122;2023-02-02T00:11:07;102306.34;;;5.06;80.15
76404;BME280;65232;48.358;2.122;2023-02-02T00:11:33;102309.84;;;5.07;80.34
76404;BME280;65232;48.358;2.122;2023-02-02T00:11:59;102307.09;;;5.10;80.00
76404;BME280;65232;48.358;2.122;2023-02-02T00:12:25;102309.44;;;5.19;79.84
76404;BME280;65232;48.358;2.122;2023-02-02T00:12:52;102311.16;;;5.20;79.84
76404;BME280;65232;48.358;2.122;2023-02-02T00:13:18;102307.88;;;5.13;80.17
76404;BME280;65232;48.358;2.122;2023-02-02T00:13:44;102311.59;;;5.08;80.21
76404;BME280;65232;48.358;2.122;2023-02-02T00:14:10;102315.16;;;5.07;80.30
76404;BME280;65232;48.358;2.122;2023-02-02T00:14:36;102310.78;;;5.06;80.51
76404;BME280;65232;48.358;2.122;2023-02-02T00:15:01;102314.47;;;5.02;80.97
76404;BME280;65232;48.358;2.122;2023-02-02T00:15:27;102314.47;;;5.02;80.75
76404;BME280;65232;48.358;2.122;2023-02-02T00:15:52;102316.22;;;5.03;81.05
76404;BME280;65232;48.358;2.122;2023-02-02T00:16:54;102309.03;;;5.05;80.72
76404;BME280;65232;48.358;2.122;2023-02-02T00:17:20;102316.16;;;5.04;80.95
76404;BME280;65232;48.358;2.122;2023-02-02T00:17:45;102309.84;;;5.07;80.75
76404;BME280;65232;48.358;2.122;2023-02-02T00:18:11;102308.94;;;5.08;81.00
76404;BME280;65232;48.358;2.122;2023-02-02T00:18:36;102312.63;;;5.04;80.91
76404;BME280;65232;48.358;2.122;2023-02-02T00:19:13;102316.22;;;5.03;80.67
76404;BME280;65232;48.358;2.122;2023-02-02T00:19:39;102316.22;;;5.03;81.01
76404;BME280;65232;48.358;2.122;2023-02-02T00:20:04;102316.22;;;5.03;80.98
76404;BME280;65232;48.358;2.122;2023-02-02T00:20:30;102316.94;;;5.06;80.81
76404;BME280;65232;48.358;2.122;2023-02-02T00:20:58;102319.59;;;5.06;80.69
76404;BME280;65232;48.358;2.122;2023-02-02T00:21:24;102312.50;;;5.07;80.65
76404;BME280;65232;48.358;2.122;2023-02-02T00:21:49;102308.19;;;5.04;80.90
76404;BME280;65232;48.358;2.122;2023-02-02T00:22:15;102314.59;;;4.99;80.75
76404;BME280;65232;48.358;2.122;2023-02-02T00:22:41;102311.00;;;5.00;80.80
76404;BME280;65232;48.358;2.122;2023-02-02T00:23:06;102313.56;;;5.03;80.86
76404;BME280;65232;48.358;2.122;2023-02-02T00:23:32;102319.78;;;5.02;80.98
76404;BME280;65232;48.358;2.122;2023-02-02T00:23:57;102317.09;;;5.03;80.76
76404;BME280;65232;48.358;2.122;2023-02-02T00:24:23;102322.19;;;5.08;80.92
76404;BME280;65232;48.358;2.122;2023-02-02T00:24:49;102316.84;;;5.09;80.53
76404;BME280;65232;48.358;2.122;2023-02-02T00:25:14;102324.84;;;5.08;80.75
76404;BME280;65232;48.358;2.122;2023-02-02T00:25:40;102323.06;;;5.08;80.46
76404;BME280;65232;48.358;2.122;2023-02-02T00:26:05;102320.38;;;5.10;80.79
76404;BME280;65232;48.358;2.122;2023-02-02T00:26:31;102323.06;;;5.08;81.03
76404;BME280;65232;48.358;2.122;2023-02-02T00:26:58;102314.44;;;5.03;80.58
76404;BME280;65232;48.358;2.122;2023-02-02T00:27:24;102319.78;;;5.02;80.28
76404;BME280;65232;48.358;2.122;2023-02-02T00:27:49;102326.88;;;5.01;80.63
76404;BME280;65232;48.358;2.122;2023-02-02T00:28:15;102319.78;;;5.02;80.68
76404;BME280;65232;48.358;2.122;2023-02-02T00:28:40;102321.56;;;5.01;80.55
76404;BME280;65232;48.358;2.122;2023-02-02T00:29:08;102320.69;;;5.01;80.60
76404;BME280;65232;48.358;2.122;2023-02-02T00:29:36;102319.03;;;4.98;80.81
76404;BME280;65232;48.358;2.122;2023-02-02T00:30:04;102324.28;;;5.00;80.48
76404;BME280;65232;48.358;2.122;2023-02-02T00:30:30;102313.66;;;5.00;80.39
76404;BME280;65232;48.358;2.122;2023-02-02T00:30:55;102318.09;;;4.99;80.84
76404;BME280;65232;48.358;2.122;2023-02-02T00:31:22;102320.81;;;4.97;80.68
76404;BME280;65232;48.358;2.122;2023-02-02T00:31:47;102317.22;;;4.99;80.64
76404;BME280;65232;48.358;2.122;2023-02-02T00:32:13;102324.22;;;5.01;80.71
76404;BME280;65232;48.358;2.122;2023-02-02T00:32:38;102319.03;;;4.98;80.46
76404;BME280;65232;48.358;2.122;2023-02-02T00:33:04;102317.47;;;4.91;80.60
76404;BME280;65232;48.358;2.122;2023-02-02T00:33:30;102321.19;;;4.87;81.10
76404;BME280;65232;48.358;2.122;2023-02-02T00:33:56;102315.84;;;4.88;81.01
76404;BME280;65232;48.358;2.122;2023-02-02T00:34:22;102322.88;;;4.89;81.16
76404;BME280;65232;48.358;2.122;2023-02-02T00:34:48;102315.59;;;4.94;81.11
76404;BME280;65232;48.358;2.122;2023-02-02T00:35:14;102319.44;;;4.86;81.45
76404;BME280;65232;48.358;2.122;2023-02-02T00:35:40;102324.84;;;4.83;81.25
76404;BME280;65232;48.358;2.122;2023-02-02T00:36:06;102311.59;;;4.83;81.53
76404;BME280;65232;48.358;2.122;2023-02-02T00:36:31;102320.41;;;4.83;81.73
76404;BME280;65232;48.358;2.122;2023-02-02T00:36:57;102322.91;;;4.88;81.59
76404;BME280;65232;48.358;2.122;2023-02-02T00:37:22;102317.56;;;4.89;81.32
76404;BME280;65232;48.358;2.122;2023-02-02T00:37:48;102312.06;;;4.94;81.58
76404;BME280;65232;48.358;2.122;2023-02-02T00:38:13;102308.66;;;4.90;81.55
76404;BME280;65232;48.358;2.122;2023-02-02T00:38:39;102308.78;;;4.87;81.71
76404;BME280;65232;48.358;2.122;2023-02-02T00:39:05;102307.06;;;4.86;80.99
76404;BME280;65232;48.358;2.122;2023-02-02T00:39:30;102305.41;;;4.82;81.09
76404;BME280;65232;48.358;2.122;2023-02-02T00:39:56;102315.22;;;4.80;81.27
76404;BME280;65232;48.358;2.122;2023-02-02T00:40:21;102313.38;;;4.82;81.38
76404;BME280;65232;48.358;2.122;2023-02-02T00:40:47;102311.78;;;4.77;81.63
76404;BME280;65232;48.358;2.122;2023-02-02T00:41:12;102310.00;;;4.77;81.50
76404;BME280;65232;48.358;2.122;2023-02-02T00:41:39;102310.81;;;4.79;81.43
76404;BME280;65232;48.358;2.122;2023-02-02T00:42:04;102297.38;;;4.85;81.33
76404;BME280;65232;48.358;2.122;2023-02-02T00:42:30;102303.69;;;4.81;81.19
76404;BME280;65232;48.358;2.122;2023-02-02T00:42:55;102299.59;;;4.97;81.11
76404;BME280;65232;48.358;2.122;2023-02-02T00:43:21;102310.28;;;4.94;80.95
76404;BME280;65232;48.358;2.122;2023-02-02T00:43:46;102302.44;;;4.91;81.35
76404;BME280;65232;48.358;2.122;2023-02-02T00:44:35;102302.63;;;4.87;81.41
76404;BME280;65232;48.358;2.122;2023-02-02T00:45:19;102297.47;;;4.82;81.54
76404;BME280;65232;48.358;2.122;2023-02-02T00:45:45;102292.94;;;4.86;81.34
76404;BME280;65232;48.358;2.122;2023-02-02T00:46:16;102304.41;;;4.86;81.25
76404;BME280;65232;48.358;2.122;2023-02-02T00:46:42;102298.22;;;4.86;81.36
76404;BME280;65232;48.358;2.122;2023-02-02T00:47:08;102292.94;;;4.86;81.71
76404;BME280;65232;48.358;2.122;2023-02-02T00:47:33;102291.19;;;4.85;81.33
76404;BME280;65232;48.358;2.122;2023-02-02T00:47:59;102298.00;;;4.92;81.21
76404;BME280;65232;48.358;2.122;2023-02-02T00:48:24;102299.91;;;4.88;81.22
76404;BME280;65232;48.358;2.122;2023-02-02T00:48:50;102298.75;;;4.95;81.37
76404;BME280;65232;48.358;2.122;2023-02-02T00:49:16;102297.91;;;4.95;81.35
76404;BME280;65232;48.358;2.122;2023-02-02T00:49:41;102295.34;;;4.92;81.41
76404;BME280;65232;48.358;2.122;2023-02-02T00:50:08;102297.25;;;4.88;81.14
76404;BME280;65232;48.358;2.122;2023-02-02T00:50:33;102297.09;;;4.93;81.10
76404;BME280;65232;48.358;2.122;2023-02-02T00:51:00;102301.56;;;4.91;81.27
76404;BME280;65232;48.358;2.122;2023-02-02T00:51:27;102292.81;;;4.89;81.26
76404;BME280;65232;48.358;2.122;2023-02-02T00:51:53;102299.06;;;4.88;81.39
76404;BME280;65232;48.358;2.122;2023-02-02T00:52:18;102297.19;;;4.90;81.39
76404;BME280;65232;48.358;2.122;2023-02-02T00:52:45;102303.75;;;4.80;81.34
76404;BME280;65232;48.358;2.122;2023-02-02T00:53:10;102299.34;;;4.79;81.22
76404;BME280;65232;48.358;2.122;2023-02-02T00:53:36;102294.09;;;4.77;81.23
76404;BME280;65232;48.358;2.122;2023-02-02T00:54:02;102303.88;;;4.75;81.30
76404;BME280;65232;48.358;2.122;2023-02-02T00:54:28;102301.31;;;4.74;80.81
76404;BME280;65232;48.358;2.122;2023-02-02T00:54:54;102306.53;;;4.75;81.56
76404;BME280;65232;48.358;2.122;2023-02-02T00:55:20;102303.97;;;4.74;81.45
76404;BME280;65232;48.358;2.122;2023-02-02T00:55:46;102305.84;;;4.70;81.88
76404;BME280;65232;48.358;2.122;2023-02-02T00:56:11;102304.84;;;4.74;82.13
76404;BME280;65232;48.358;2.122;2023-02-02T00:56:37;102308.41;;;4.73;81.99
76404;BME280;65232;48.358;2.122;2023-02-02T00:57:02;102306.66;;;4.72;82.02
76404;BME280;65232;48.358;2.122;2023-02-02T00:57:28;102311.00;;;4.75;82.25
76404;BME280;65232;48.358;2.122;2023-02-02T00:57:53;102307.41;;;4.76;82.03
76404;BME280;65232;48.358;2.122;2023-02-02T00:58:19;102314.63;;;4.72;81.97
76404;BME280;65232;48.358;2.122;2023-02-02T00:58:46;102314.44;;;4.77;82.10
76404;BME280;65232;48.358;2.122;2023-02-02T00:59:11;102308.28;;;4.76;82.12
76404;BME280;65232;48.358;2.122;2023-02-02T00:59:37;102310.88;;;4.78;81.74
76404;BME280;65232;48.358;2.122;2023-02-02T01:00:04;102308.28;;;4.76;81.74
76404;BME280;65232;48.358;2.122;2023-02-02T01:00:31;102311.94;;;4.74;81.73
76404;BME280;65232;48.358;2.122;2023-02-02T01:00:56;102309.19;;;4.75;81.64
76404;BME280;65232;48.358;2.122;2023-02-02T01:01:22;102314.56;;;4.74;81.35
76404;BME280;65232;48.358;2.122;2023-02-02T01:01:48;102314.41;;;4.78;81.67
76404;BME280;65232;48.358;2.122;2023-02-02T01:02:13;102311.06;;;4.73;81.71
76404;BME280;65232;48.358;2.122;2023-02-02T01:02:39;102310.28;;;4.70;81.70
76404;BME280;65232;48.358;2.122;2023-02-02T01:03:05;102314.63;;;4.72;81.57
76404;BME280;65232;48.358;2.122;2023-02-02T01:03:31;102315.50;;;4.73;81.66
76404;BME280;65232;48.358;2.122;2023-02-02T01:03:57;102312.03;;;4.71;81.38
76404;BME280;65232;48.358;2.122;2023-02-02T01:04:23;102313.84;;;4.69;82.01
76404;BME280;65232;48.358;2.122;2023-02-02T01:04:48;102310.34;;;4.68;81.77
76404;BME280;65232;48.358;2.122;2023-02-02T01:05:14;102308.66;;;4.66;81.28
76404;BME280;65232;48.358;2.122;2023-02-02T01:05:40;102311.53;;;4.59;81.26
76404;BME280;65232;48.358;2.122;2023-02-02T01:06:06;102308.94;;;4.58;80.85
76404;BME280;65232;48.358;2.122;2023-02-02T01:06:31;102305.41;;;4.57;80.92
76404;BME280;65232;48.358;2.122;2023-02-02T01:06:57;102305.41;;;4.57;80.98
76404;BME280;65232;48.358;2.122;2023-02-02T01:07:22;102309.06;;;4.53;81.46
76404;BME280;65232;48.358;2.122;2023-02-02T01:07:48;102309.97;;;4.52;81.17
76404;BME280;65232;48.358;2.122;2023-02-02T01:08:13;102307.19;;;4.57;80.98
76404;BME280;65232;48.358;2.122;2023-02-02T01:08:39;102301.03;;;4.56;81.08
76404;BME280;65232;48.358;2.122;2023-02-02T01:09:06;102303.56;;;4.59;80.86
76404;BME280;65232;48.358;2.122;2023-02-02T01:09:31;102296.53;;;4.58;80.63
76404;BME280;65232;48.358;2.122;2023-02-02T01:09:57;102300.16;;;4.56;80.59
76404;BME280;65232;48.358;2.122;2023-02-02T01:10:23;102300.19;;;4.54;80.23
76404;BME280;65232;48.358;2.122;2023-02-02T01:10:48;102300.38;;;4.48;80.29
76404;BME280;65232;48.358;2.122;2023-02-02T01:11:14;102306.72;;;4.44;80.52
76404;BME280;65232;48.358;2.122;2023-02-02T01:11:40;102300.75;;;4.38;80.41
76404;BME280;65232;48.358;2.122;2023-02-02T01:12:05;102300.94;;;4.32;80.72
76404;BME280;65232;48.358;2.122;2023-02-02T01:12:31;102301.03;;;4.30;80.80
76404;BME280;65232;48.358;2.122;2023-02-02T01:12:56;102302.81;;;4.30;81.04
76404;BME280;65232;48.358;2.122;2023-02-02T01:13:22;102313.50;;;4.27;80.85
76404;BME280;65232;48.358;2.122;2023-02-02T01:13:47;102310.25;;;4.17;80.71
76404;BME280;65232;48.358;2.122;2023-02-02T01:14:13;102309.38;;;4.16;81.04
76404;BME280;65232;48.358;2.122;2023-02-02T01:14:38;102310.38;;;4.14;81.14
76404;BME280;65232;48.358;2.122;2023-02-02T01:15:04;102316.63;;;4.11;81.20
76404;BME280;65232;48.358;2.122;2023-02-02T01:15:30;102308.66;;;4.13;81.11
76404;BME280;65232;48.358;2.122;2023-02-02T01:15:57;102305.03;;;4.15;81.62
76404;BME280;65232;48.358;2.122;2023-02-02T01:16:24;102314.63;;;4.18;81.66
76404;BME280;65232;48.358;2.122;2023-02-02T01:16:50;102310.25;;;4.17;81.51
76404;BME280;65232;48.358;2.122;2023-02-02T01:17:15;102313.78;;;4.17;81.16
76404;BME280;65232;48.358;2.122;2023-02-02T01:17:41;102309.38;;;4.16;81.06
76404;BME280;65232;48.358;2.122;2023-02-02T01:18:07;102319.84;;;4.21;80.82
76404;BME280;65232;48.358;2.122;2023-02-02T01:18:32;102315.47;;;4.20;80.69
76404;BME280;65232;48.358;2.122;2023-02-02T01:18:58;102316.47;;;4.16;80.98
76404;BME280;65232;48.358;2.122;2023-02-02T01:19:23;102318.16;;;4.18;80.81
76404;BME280;65232;48.358;2.122;2023-02-02T01:19:49;102312.16;;;4.13;81.02
76404;BME280;65232;48.358;2.122;2023-02-02T01:20:17;102317.28;;;4.18;81.00
76404;BME280;65232;48.358;2.122;2023-02-02T01:20:43;102319.66;;;4.27;81.02
76404;BME280;65232;48.358;2.122;2023-02-02T01:21:10;102315.31;;;4.24;80.96
76404;BME280;65232;48.358;2.122;2023-02-02T01:21:36;102315.19;;;4.29;80.81
76404;BME280;65232;48.358;2.122;2023-02-02T01:22:02;102314.09;;;4.35;80.84
76404;BME280;65232;48.358;2.122;2023-02-02T01:22:27;102312.41;;;4.32;80.72
76404;BME280;65232;48.358;2.122;2023-02-02T01:22:53;102313.31;;;4.31;80.64
76404;BME280;65232;48.358;2.122;2023-02-02T01:23:18;102310.63;;;4.33;80.84
76404;BME280;65232;48.358;2.122;2023-02-02T01:23:44;102308.19;;;4.27;80.59
76404;BME280;65232;48.358;2.122;2023-02-02T01:24:09;102319.72;;;4.25;80.68
76404;BME280;65232;48.358;2.122;2023-02-02T01:24:35;102314.38;;;4.27;80.97
76404;BME280;65232;48.358;2.122;2023-02-02T01:25:00;102307.31;;;4.26;80.93
76404;BME280;65232;48.358;2.122;2023-02-02T01:25:26;102319.66;;;4.27;80.98
76404;BME280;65232;48.358;2.122;2023-02-02T01:25:56;102316.09;;;4.28;81.21
76404;BME280;65232;48.358;2.122;2023-02-02T01:26:22;102323.06;;;4.31;80.62
76404;BME280;65232;48.358;2.122;2023-02-02T01:26:47;102321.50;;;4.25;80.98
76404;BME280;65232;48.358;2.122;2023-02-02T01:27:13;102319.81;;;4.22;80.87
76404;BME280;65232;48.358;2.122;2023-02-02T01:27:38;102320.72;;;4.21;81.13
76404;BME280;65232;48.358;2.122;2023-02-02T01:28:04;102321.75;;;4.16;81.05
76404;BME280;65232;48.358;2.122;2023-02-02T01:28:30;102323.63;;;4.14;80.96
76404;BME280;65232;48.358;2.122;2023-02-02T01:28:55;102322.75;;;4.13;80.63
76404;BME280;65232;48.358;2.122;2023-02-02T01:29:21;102321.09;;;4.09;80.63
76404;BME280;65232;48.358;2.122;2023-02-02T01:29:46;102321.03;;;4.12;80.40
76404;BME280;65232;48.358;2.122;2023-02-02T01:30:12;102320.97;;;4.14;80.50
76404;BME280;65232;48.358;2.122;2023-02-02T01:30:38;102322.06;;;4.07;80.41
76404;BME280;65232;48.358;2.122;2023-02-02T01:31:09;102321.94;;;4.11;80.33
76404;BME280;65232;48.358;2.122;2023-02-02T01:31:34;102322.75;;;4.13;80.33
76404;BME280;65232;48.358;2.122;2023-02-02T01:32:00;102322.81;;;4.12;80.46
76404;BME280;65232;48.358;2.122;2023-02-02T01:32:26;102320.94;;;4.15;80.25
76404;BME280;65232;48.358;2.122;2023-02-02T01:32:53;102324.50;;;4.14;80.24
76404;BME280;65232;48.358;2.122;2023-02-02T01:33:19;102328.00;;;4.15;80.16
76404;BME280;65232;48.358;2.122;2023-02-02T01:33:45;102322.97;;;4.06;80.10
76404;BME280;65232;48.358;2.122;2023-02-02T01:34:11;102326.59;;;4.03;80.27
76404;BME280;65232;48.358;2.122;2023-02-02T01:34:37;102323.84;;;4.06;80.43
76404;BME280;65232;48.358;2.122;2023-02-02T01:35:06;102323.06;;;4.03;80.15
76404;BME280;65232;48.358;2.122;2023-02-02T01:35:31;102327.66;;;3.98;80.24
76404;BME280;65232;48.358;2.122;2023-02-02T01:35:57;102324.09;;;3.99;80.39
76404;BME280;65232;48.358;2.122;2023-02-02T01:36:23;102319.66;;;3.99;80.42
76404;BME280;65232;48.358;2.122;2023-02-02T01:36:48;102321.53;;;3.96;80.78
76404;BME280;65232;48.358;2.122;2023-02-02T01:37:14;102325.16;;;3.93;80.88
76404;BME280;65232;48.358;2.122;2023-02-02T01:37:40;102321.66;;;3.91;81.08
76404;BME280;65232;48.358;2.122;2023-02-02T01:38:05;102318.25;;;3.87;80.96
76404;BME280;65232;48.358;2.122;2023-02-02T01:38:31;102315.56;;;3.89;80.78
76404;BME280;65232;48.358;2.122;2023-02-02T01:38:58;102310.22;;;3.90;81.31
76404;BME280;65232;48.358;2.122;2023-02-02T01:39:24;102314.84;;;3.84;81.20
76404;BME280;65232;48.358;2.122;2023-02-02T01:39:50;102310.59;;;3.78;81.42
76404;BME280;65232;48.358;2.122;2023-02-02T01:40:15;102315.31;;;3.69;81.52
76404;BME280;65232;48.358;2.122;2023-02-02T01:40:46;102306.66;;;3.62;81.72
76404;BME280;65232;48.358;2.122;2023-02-02T01:41:13;102310.13;;;3.64;81.58
76404;BME280;65232;48.358;2.122;2023-02-02T01:41:40;102311.06;;;3.63;81.57
76404;BME280;65232;48.358;2.122;2023-02-02T01:42:19;102313.63;;;3.66;81.41
76404;BME280;65232;48.358;2.122;2023-02-02T01:42:45;102311.91;;;3.64;81.21
76404;BME280;65232;48.358;2.122;2023-02-02T01:45:29;102313.97;;;3.54;81.10
76404;BME280;65232;48.358;2.122;2023-02-02T01:45:57;102311.38;;;3.52;81.25
76404;BME280;65232;48.358;2.122;2023-02-02T01:46:28;102315.84;;;3.50;81.39
76404;BME280;65232;48.358;2.122;2023-02-02T01:46:54;102320.31;;;3.48;81.19
76404;BME280;65232;48.358;2.122;2023-02-02T01:47:22;102320.25;;;3.50;81.08
76404;BME280;65232;48.358;2.122;2023-02-02T01:47:52;102324.69;;;3.49;81.32
76404;BME280;65232;48.358;2.122;2023-02-02T01:48:22;102315.00;;;3.48;81.08
76404;BME280;65232;48.358;2.122;2023-02-02T01:49:22;102320.34;;;3.47;81.17
76404;BME280;65232;48.358;2.122;2023-02-02T01:49:47;102319.47;;;3.46;80.88
76404;BME280;65232;48.358;2.122;2023-02-02T01:50:15;102311.63;;;3.43;81.10
76404;BME280;65232;48.358;2.122;2023-02-02T01:50:41;102321.22;;;3.47;81.37
76404;BME280;65232;48.358;2.122;2023-02-02T01:51:11;102316.84;;;3.46;80.95
76404;BME280;65232;48.358;2.122;2023-02-02T01:52:18;102318.69;;;3.43;80.91
76404;BME280;65232;48.358;2.122;2023-02-02T01:52:37;102315.97;;;3.46;81.22
76404;BME280;65232;48.358;2.122;2023-02-02T01:53:04;102310.00;;;3.39;80.98
76404;BME280;65232;48.358;2.122;2023-02-02T01:53:32;102307.47;;;3.35;81.31
76404;BME280;65232;48.358;2.122;2023-02-02T01:53:58;102316.38;;;3.32;81.51
76404;BME280;65232;48.358;2.122;2023-02-02T01:54:42;102314.69;;;3.28;81.90
76404;BME280;65232;48.358;2.122;2023-02-02T01:55:10;102313.84;;;3.28;81.80
76404;BME280;65232;48.358;2.122;2023-02-02T01:55:38;102321.56;;;3.35;81.69
76404;BME280;65232;48.358;2.122;2023-02-02T01:56:06;102316.09;;;3.41;81.40
76404;BME280;65232;48.358;2.122;2023-02-02T01:56:38;102315.38;;;3.36;81.50
76404;BME280;65232;48.358;2.122;2023-02-02T01:57:08;102318.97;;;3.34;81.65
76404;BME280;65232;48.358;2.122;2023-02-02T01:58:10;102319.00;;;3.32;81.76
76404;BME280;65232;48.358;2.122;2023-02-02T01:58:38;102314.63;;;3.31;81.94
76404;BME280;65232;48.358;2.122;2023-02-02T01:59:05;102309.41;;;3.28;81.58
76404;BME280;65232;48.358;2.122;2023-02-02T01:59:31;102318.25;;;3.27;81.59
76404;BME280;65232;48.358;2.122;2023-02-02T01:59:59;102316.56;;;3.26;81.71
76404;BME280;65232;48.358;2.122;2023-02-02T02:00:26;102314.91;;;3.22;81.66
76404;BME280;65232;48.358;2.122;2023-02-02T02:00:52;102317.50;;;3.24;81.54
76404;BME280;65232;48.358;2.122;2023-02-02T02:01:18;102312.94;;;3.29;81.69
76404;BME280;65232;48.358;2.122;2023-02-02T02:01:45;102311.19;;;3.28;81.45
76404;BME280;65232;48.358;2.122;2023-02-02T02:02:11;102318.44;;;3.21;81.41
76404;BME280;65232;48.358;2.122;2023-02-02T02:02:38;102314.91;;;3.22;81.60
76404;BME280;65232;48.358;2.122;2023-02-02T02:03:08;102310.47;;;3.23;81.27
76404;BME280;65232;48.358;2.122;2023-02-02T02:03:36;102311.47;;;3.18;81.46
76404;BME280;65232;48.358;2.122;2023-02-02T02:04:02;102318.38;;;3.24;81.59
76404;BME280;65232;48.358;2.122;2023-02-02T02:04:29;102314.06;;;3.20;81.39
76404;BME280;65232;48.358;2.122;2023-02-02T02:04:56;102315.63;;;3.27;81.58
76404;BME280;65232;48.358;2.122;2023-02-02T02:05:47;102319.72;;;3.39;81.55
76404;BME280;65232;48.358;2.122;2023-02-02T02:06:16;102312.69;;;3.38;81.23
76404;BME280;65232;48.358;2.122;2023-02-02T02:06:43;102319.59;;;3.42;81.47
76404;BME280;65232;48.358;2.122;2023-02-02T02:07:10;102322.38;;;3.39;81.54
76404;BME280;65232;48.358;2.122;2023-02-02T02:07:39;102315.34;;;3.38;81.51
76404;BME280;65232;48.358;2.122;2023-02-02T02:08:12;102317.03;;;3.40;81.74
76404;BME280;65232;48.358;2.122;2023-02-02T02:08:39;102318.88;;;3.37;81.95
76404;BME280;65232;48.358;2.122;2023-02-02T02:09:06;102318.81;;;3.40;81.43
76404;BME280;65232;48.358;2.122;2023-02-02T02:09:33;102325.94;;;3.36;81.61
76404;BME280;65232;48.358;2.122;2023-02-02T02:09:59;102317.22;;;3.33;81.86
76404;BME280;65232;48.358;2.122;2023-02-02T02:10:25;102326.25;;;3.26;81.82
76404;BME280;65232;48.358;2.122;2023-02-02T02:10:51;102327.84;;;3.31;81.75
76404;BME280;65232;48.358;2.122;2023-02-02T02:11:17;102323.38;;;3.33;81.65
76404;BME280;65232;48.358;2.122;2023-02-02T02:11:43;102324.34;;;3.31;81.60
76404;BME280;65232;48.358;2.122;2023-02-02T02:12:12;102324.38;;;3.29;81.84
76404;BME280;65232;48.358;2.122;2023-02-02T02:12:40;102323.75;;;3.21;81.71
76404;BME280;65232;48.358;2.122;2023-02-02T02:13:05;102326.41;;;3.19;82.05
76404;BME280;65232;48.358;2.122;2023-02-02T02:13:34;102330.63;;;3.27;81.81
76404;BME280;65232;48.358;2.122;2023-02-02T02:14:21;102325.25;;;3.30;81.66
76404;BME280;65232;48.358;2.122;2023-02-02T02:15:07;102330.56;;;3.28;81.67
76404;BME280;65232;48.358;2.122;2023-02-02T02:15:59;102330.19;;;3.11;82.41
76404;BME280;65232;48.358;2.122;2023-02-02T02:17:46;102329.25;;;3.12;82.64
76404;BME280;65232;48.358;2.122;2023-02-02T02:18:20;102325.59;;;3.17;82.51
76404;BME280;65232;48.358;2.122;2023-02-02T02:19:00;102327.38;;;3.17;82.16
76404;BME280;65232;48.358;2.122;2023-02-02T02:22:56;102322.19;;;3.12;81.25
76404;BME280;65232;48.358;2.122;2023-02-02T02:25:00;102314.81;;;2.93;81.41
76404;BME280;65232;48.358;2.122;2023-02-02T02:26:04;102317.78;;;2.80;81.65
76404;BME280;65232;48.358;2.122;2023-02-02T02:33:48;102323.66;;;2.92;80.98
76404;BME280;65232;48.358;2.122;2023-02-02T02:36:10;102322.81;;;2.90;80.89
76404;BME280;65232;48.358;2.122;2023-02-02T02:36:48;102321.19;;;2.84;81.17
76404;BME280;65232;48.358;2.122;2023-02-02T02:37:58;102314.19;;;2.83;81.16
76404;BME280;65232;48.358;2.122;2023-02-02T02:38:43;102323.84;;;2.84;81.15
76404;BME280;65232;48.358;2.122;2023-02-02T02:39:24;102323.75;;;2.89;81.18
76404;BME280;65232;48.358;2.122;2023-02-02T02:40:25;102328.19;;;2.87;81.20
76404;BME280;65232;48.358;2.122;2023-02-02T02:40:54;102314.03;;;2.89;80.89
76404;BME280;65232;48.358;2.122;2023-02-02T02:41:26;102329.16;;;2.82;81.75
76404;BME280;65232;48.358;2.122;2023-02-02T02:41:58;102322.94;;;2.85;81.80
76404;BME280;65232;48.358;2.122;2023-02-02T02:42:28;102327.31;;;2.86;82.30
76404;BME280;65232;48.358;2.122;2023-02-02T02:43:03;102325.63;;;2.83;81.89
76404;BME280;65232;48.358;2.122;2023-02-02T02:43:35;102327.47;;;2.81;81.76
76404;BME280;65232;48.358;2.122;2023-02-02T02:44:13;102333.47;;;2.87;81.42
76404;BME280;65232;48.358;2.122;2023-02-02T02:44:40;102334.31;;;2.89;81.58
76404;BME280;65232;48.358;2.122;2023-02-02T02:45:07;102331.81;;;2.82;81.48
76404;BME280;65232;48.358;2.122;2023-02-02T02:45:35;102336.31;;;2.80;81.47
76404;BME280;65232;48.358;2.122;2023-02-02T02:46:01;102338.13;;;2.78;81.54